createdAt,value
2023-01-08T02:19:59.830Z,8.60
2023-01-08T02:22:41.349Z,9.70
2023-01-08T02:25:07.860Z,9.40
2023-01-08T02:27:37.482Z,9.80
2023-01-08T02:30:05.270Z,8.90
2023-01-08T02:32:38.816Z,8.50
2023-01-08T02:35:06.675Z,8.40
2023-01-08T02:37:33.761Z,8.30
2023-01-08T02:40:06.263Z,6.50
2023-01-08T02:43:08.124Z,7.60
2023-01-08T02:45:46.471Z,7.40
2023-01-08T02:48:46.500Z,8.30
2023-01-08T02:51:20.000Z,10.40
2023-01-08T02:53:50.566Z,8.00
2023-01-08T02:56:25.910Z,11.10
2023-01-08T02:58:53.683Z,8.40
2023-01-08T03:01:22.478Z,9.00
2023-01-08T03:03:54.361Z,11.60
2023-01-08T03:06:21.454Z,8.20
2023-01-08T03:08:51.491Z,7.40
2023-01-08T03:11:21.030Z,7.00
2023-01-08T03:14:19.776Z,9.00
2023-01-08T03:16:55.009Z,8.20
2023-01-08T03:19:30.136Z,9.10
2023-01-08T03:21:57.827Z,10.00
2023-01-08T03:24:28.846Z,9.70
2023-01-08T03:27:02.445Z,9.10
2023-01-08T03:29:29.217Z,9.80
2023-01-08T03:32:00.568Z,11.00
2023-01-08T03:34:29.345Z,8.80
2023-01-08T03:37:00.095Z,8.80
2023-01-08T03:39:58.459Z,10.30
2023-01-08T03:42:25.783Z,11.10
2023-01-08T03:44:52.310Z,9.40
2023-01-08T03:47:20.712Z,10.30
2023-01-08T03:49:50.904Z,11.50
2023-01-08T03:52:25.388Z,11.90
2023-01-08T03:54:52.195Z,10.20
2023-01-08T03:57:19.098Z,11.30
2023-01-08T03:59:46.055Z,9.90
2023-01-08T04:02:13.134Z,11.70
2023-01-08T04:04:40.057Z,10.40
2023-01-08T04:07:07.803Z,9.60
2023-01-08T04:09:34.418Z,12.40
2023-01-08T04:12:01.004Z,10.50
2023-01-08T04:14:27.774Z,14.00
2023-01-08T04:16:54.164Z,13.00
2023-01-08T04:19:20.660Z,10.80
2023-01-08T04:21:51.009Z,12.70
2023-01-08T04:24:18.205Z,12.20
2023-01-08T04:26:45.391Z,11.80
2023-01-08T04:29:13.720Z,11.40
2023-01-08T04:31:40.409Z,14.20
2023-01-08T04:34:06.971Z,13.20
2023-01-08T04:36:33.759Z,11.20
2023-01-08T04:39:00.442Z,11.10
2023-01-08T04:41:26.984Z,13.10
2023-01-08T04:43:53.464Z,13.90
2023-01-08T04:46:19.951Z,12.00
2023-01-08T04:48:46.359Z,15.10
2023-01-08T04:51:12.862Z,13.50
2023-01-08T04:53:41.385Z,12.00
2023-01-08T04:56:10.242Z,13.80
2023-01-08T04:58:38.673Z,13.20
2023-01-08T05:01:13.569Z,14.70
2023-01-08T05:03:40.281Z,15.10
2023-01-08T05:06:07.237Z,13.80
2023-01-08T05:08:33.852Z,16.20
2023-01-08T05:11:03.708Z,16.60
2023-01-08T05:13:31.152Z,14.30
2023-01-08T05:16:01.209Z,23.30
2023-01-08T05:18:28.916Z,15.60
2023-01-08T05:21:03.055Z,16.10
2023-01-08T05:23:30.344Z,15.60
2023-01-08T05:26:01.979Z,21.00
2023-01-08T05:28:29.871Z,15.40
2023-01-08T05:30:56.833Z,16.90
2023-01-08T05:33:23.932Z,16.90
2023-01-08T05:35:50.916Z,17.40
2023-01-08T05:38:17.696Z,17.50
2023-01-08T05:40:44.765Z,16.50
2023-01-08T05:43:11.607Z,18.00
2023-01-08T05:45:38.146Z,14.70
2023-01-08T05:48:06.731Z,15.60
2023-01-08T05:50:34.072Z,17.70
2023-01-08T05:53:00.796Z,13.50
2023-01-08T05:55:27.363Z,14.70
2023-01-08T05:57:53.888Z,16.20
2023-01-08T06:00:20.403Z,15.90
2023-01-08T06:02:47.608Z,15.80
2023-01-08T06:05:14.893Z,18.20
2023-01-08T06:07:41.371Z,16.50
2023-01-08T06:10:08.336Z,14.70
2023-01-08T06:12:34.962Z,15.10
2023-01-08T06:15:01.518Z,16.10
2023-01-08T06:17:28.015Z,15.80
2023-01-08T06:19:55.536Z,19.20
2023-01-08T06:22:22.269Z,19.30
2023-01-08T06:24:48.991Z,16.40
2023-01-08T06:27:15.515Z,15.80
2023-01-08T06:29:42.031Z,15.60
2023-01-08T06:32:08.625Z,16.00
2023-01-08T06:34:35.173Z,19.90
2023-01-08T06:37:01.734Z,16.80
2023-01-08T06:39:28.313Z,17.20
2023-01-08T06:41:54.939Z,17.30
2023-01-08T06:44:22.469Z,14.30
2023-01-08T06:46:49.049Z,16.10
2023-01-08T06:49:16.936Z,19.10
2023-01-08T06:51:43.709Z,19.10
2023-01-08T06:54:11.580Z,17.20
2023-01-08T06:56:52.619Z,15.70
2023-01-08T06:59:20.329Z,16.00
2023-01-08T07:01:47.027Z,16.00
2023-01-08T07:04:13.708Z,15.50
2023-01-08T07:06:40.231Z,18.20
2023-01-08T07:09:06.672Z,16.50
2023-01-08T07:11:33.619Z,16.30
2023-01-08T07:14:00.131Z,16.70
2023-01-08T07:16:26.633Z,16.00
2023-01-08T07:18:53.268Z,16.70
2023-01-08T07:21:21.938Z,21.30
2023-01-08T07:23:49.111Z,17.50
2023-01-08T07:26:15.766Z,18.10
2023-01-08T07:28:43.092Z,17.50
2023-01-08T07:31:09.878Z,16.20
2023-01-08T07:33:36.374Z,18.60
2023-01-08T07:36:03.190Z,18.80
2023-01-08T07:38:29.683Z,19.70
2023-01-08T07:40:58.400Z,16.80
2023-01-08T07:43:25.603Z,18.90
2023-01-08T07:45:52.098Z,20.50
2023-01-08T07:48:18.597Z,19.00
2023-01-08T07:50:45.336Z,18.60
2023-01-08T07:53:13.401Z,17.30
2023-01-08T07:55:40.046Z,16.50
2023-01-08T07:58:11.701Z,17.00
2023-01-08T08:00:38.904Z,15.60
2023-01-08T08:03:07.235Z,15.70
2023-01-08T08:05:34.651Z,16.00
2023-01-08T08:08:01.262Z,15.40
2023-01-08T08:10:28.092Z,17.20
2023-01-08T08:12:54.581Z,16.70
2023-01-08T08:15:21.266Z,19.10
2023-01-08T08:17:48.298Z,16.10
2023-01-08T08:20:15.350Z,13.40
2023-01-08T08:22:42.411Z,19.10
2023-01-08T08:25:09.391Z,15.50
2023-01-08T08:27:36.411Z,14.70
2023-01-08T08:30:04.010Z,13.60
2023-01-08T08:32:30.500Z,15.70
2023-01-08T08:34:57.064Z,13.10
2023-01-08T08:37:23.625Z,15.10
2023-01-08T08:39:50.081Z,13.00
2023-01-08T08:42:16.916Z,14.70
2023-01-08T08:44:43.484Z,14.90
2023-01-08T08:47:10.373Z,15.30
2023-01-08T08:49:36.976Z,14.40
2023-01-08T08:52:04.402Z,13.50
2023-01-08T08:54:31.589Z,17.20
2023-01-08T08:56:58.027Z,15.60
2023-01-08T08:59:24.579Z,17.40
2023-01-08T09:01:51.229Z,13.20
2023-01-08T09:04:17.934Z,15.60
2023-01-08T09:06:44.892Z,12.80
2023-01-08T09:09:11.520Z,14.50
2023-01-08T09:11:38.097Z,12.40
2023-01-08T09:14:04.534Z,15.00
2023-01-08T09:16:32.464Z,15.50
2023-01-08T09:18:59.073Z,15.10
2023-01-08T09:21:25.603Z,16.50
2023-01-08T09:23:52.528Z,15.30
2023-01-08T09:26:19.398Z,12.60
2023-01-08T09:28:45.915Z,13.10
2023-01-08T09:31:12.622Z,13.50
2023-01-08T09:33:39.223Z,14.50
2023-01-08T09:36:10.539Z,14.40
2023-01-08T09:38:37.159Z,12.90
2023-01-08T09:41:16.124Z,11.90
2023-01-08T09:43:45.946Z,14.50
2023-01-08T09:46:14.338Z,15.80
2023-01-08T09:48:41.619Z,14.20
2023-01-08T09:51:17.020Z,15.60
2023-01-08T09:53:44.404Z,15.30
2023-01-08T09:57:25.926Z,15.60
2023-01-08T09:59:52.504Z,15.20
2023-01-08T10:02:22.418Z,13.70
2023-01-08T10:04:54.617Z,18.20
2023-01-08T10:07:25.970Z,14.50
2023-01-08T10:09:53.179Z,15.20
2023-01-08T10:12:29.117Z,13.40
2023-01-08T10:15:02.516Z,11.70
2023-01-08T10:17:38.898Z,12.90
2023-01-08T10:20:14.260Z,15.40
2023-01-08T10:22:41.190Z,14.40
2023-01-08T10:25:14.685Z,12.20
2023-01-08T10:28:15.967Z,14.60
2023-01-08T10:30:42.684Z,9.60
2023-01-08T10:33:21.360Z,11.20
2023-01-08T10:36:03.421Z,13.40
2023-01-08T10:38:40.963Z,12.10
2023-01-08T10:41:13.108Z,12.20
2023-01-08T10:44:00.063Z,13.60
2023-01-08T10:46:42.247Z,13.20
2023-01-08T10:49:22.397Z,10.70
2023-01-08T10:51:51.827Z,12.90
2023-01-08T10:54:38.754Z,13.20
2023-01-08T10:57:26.661Z,12.80
2023-01-08T10:59:54.151Z,12.90
2023-01-08T11:02:22.104Z,11.80
2023-01-08T11:04:52.445Z,13.70
2023-01-08T11:07:21.615Z,13.90
2023-01-08T11:09:51.024Z,14.40
2023-01-08T11:12:38.749Z,14.10
2023-01-08T11:15:23.215Z,10.70
2023-01-08T11:17:50.232Z,11.20
2023-01-08T11:20:37.879Z,12.00
2023-01-08T11:23:05.711Z,11.80
2023-01-08T11:25:34.164Z,12.80
2023-01-08T11:28:04.028Z,12.90
2023-01-08T11:30:32.351Z,12.30
2023-01-08T11:33:06.137Z,11.60
2023-01-08T11:35:49.836Z,11.20
2023-01-08T11:38:16.947Z,11.20
2023-01-08T11:41:37.938Z,9.10
2023-01-08T11:44:11.355Z,12.70
2023-01-08T11:46:45.939Z,12.60
2023-01-08T11:49:43.350Z,12.30
2023-01-08T11:52:35.449Z,14.80
2023-01-08T11:55:02.005Z,14.30
2023-01-08T11:57:37.228Z,9.80
2023-01-08T12:00:28.152Z,11.80
2023-01-08T12:02:59.431Z,12.40
2023-01-08T12:05:49.486Z,13.30
2023-01-08T12:08:48.052Z,11.30
2023-01-08T12:11:27.443Z,11.60
2023-01-08T12:14:10.637Z,12.00
2023-01-08T12:17:04.815Z,13.80
2023-01-08T12:19:31.321Z,14.80
2023-01-08T12:22:00.836Z,11.50
2023-01-08T12:24:42.301Z,13.50
2023-01-08T12:27:25.915Z,14.80
2023-01-08T12:30:25.480Z,11.40
2023-01-08T12:33:03.680Z,9.90
2023-01-08T12:35:42.556Z,9.30
2023-01-08T12:38:44.564Z,8.80
2023-01-08T12:41:18.031Z,8.40
2023-01-08T12:44:11.404Z,11.70
2023-01-08T12:46:42.210Z,13.70
2023-01-08T12:49:13.155Z,16.90
2023-01-08T12:52:24.798Z,15.00
2023-01-08T12:54:56.056Z,14.40
2023-01-08T12:57:31.812Z,15.30
2023-01-08T13:00:01.465Z,14.00
2023-01-08T13:03:04.779Z,13.40
2023-01-08T13:05:36.566Z,9.80
2023-01-08T13:08:06.717Z,11.60
2023-01-08T13:10:38.492Z,12.60
2023-01-08T13:13:08.327Z,9.70
2023-01-08T13:15:35.970Z,11.00
2023-01-08T13:18:16.739Z,10.70
2023-01-08T13:20:55.427Z,9.90
2023-01-08T13:23:26.630Z,10.00
2023-01-08T13:25:55.551Z,9.90
2023-01-08T13:28:26.435Z,11.80
2023-01-08T13:30:55.239Z,13.30
2023-01-08T13:33:42.830Z,12.20
2023-01-08T13:36:12.482Z,11.00
2023-01-08T13:38:40.652Z,11.60
2023-01-08T13:41:27.418Z,13.70
2023-01-08T13:44:01.562Z,12.70
2023-01-08T13:46:28.593Z,13.60
2023-01-08T13:49:19.140Z,11.60
2023-01-08T13:51:47.088Z,11.60
2023-01-08T13:54:14.313Z,12.10
2023-01-08T13:56:42.392Z,9.40
2023-01-08T13:59:34.383Z,11.60
2023-01-08T14:02:01.288Z,11.60
2023-01-08T14:04:27.976Z,11.30
2023-01-08T14:07:12.034Z,10.00
2023-01-08T14:09:38.746Z,8.50
2023-01-08T14:12:05.443Z,9.80
2023-01-08T14:14:31.952Z,11.50
2023-01-08T14:16:58.443Z,10.10
2023-01-08T14:19:26.079Z,8.50
2023-01-08T14:21:58.301Z,8.90
2023-01-08T14:24:25.832Z,10.10
2023-01-08T14:26:54.672Z,9.20
2023-01-08T14:29:24.540Z,9.10
2023-01-08T14:31:56.530Z,8.30
2023-01-08T14:34:26.514Z,10.60
2023-01-08T14:36:54.691Z,8.70
2023-01-08T14:39:35.137Z,8.80
2023-01-08T14:42:46.642Z,10.50
2023-01-08T14:45:23.251Z,9.40
2023-01-08T14:47:58.765Z,10.80
2023-01-08T14:50:31.536Z,14.00
2023-01-08T14:53:06.226Z,16.10
2023-01-08T14:55:35.373Z,16.10
2023-01-08T14:58:01.977Z,15.60
2023-01-08T15:00:31.046Z,12.40
2023-01-08T15:02:57.806Z,11.80
2023-01-08T15:05:30.882Z,14.00
2023-01-08T15:08:04.229Z,10.10
2023-01-08T15:10:41.501Z,11.20
2023-01-08T15:13:25.099Z,11.20
2023-01-08T15:16:14.729Z,9.00
2023-01-08T15:18:44.496Z,9.60
2023-01-08T15:21:16.995Z,10.20
2023-01-08T15:23:48.234Z,7.90
2023-01-08T15:26:15.707Z,9.10
2023-01-08T15:28:48.836Z,8.90
2023-01-08T15:31:26.919Z,9.00
2023-01-08T15:33:54.204Z,8.30
2023-01-08T15:36:21.082Z,9.80
2023-01-08T15:38:48.497Z,10.30
2023-01-08T15:41:38.888Z,11.90
2023-01-08T15:44:06.177Z,8.90
2023-01-08T15:46:32.730Z,12.10
2023-01-08T15:48:59.303Z,12.90
2023-01-08T15:51:28.028Z,11.10
2023-01-08T15:53:54.450Z,13.60
2023-01-08T15:56:20.959Z,11.80
2023-01-08T15:58:47.399Z,13.50
2023-01-08T16:01:14.066Z,14.50
2023-01-08T16:03:40.608Z,12.10
2023-01-08T16:06:07.718Z,14.30
2023-01-08T16:08:34.190Z,13.20
2023-01-08T16:11:00.848Z,14.00
2023-01-08T16:13:27.403Z,12.10
2023-01-08T16:15:55.269Z,12.20
2023-01-08T16:18:21.720Z,12.20
2023-01-08T16:20:48.165Z,12.70
2023-01-08T16:23:14.650Z,11.50
2023-01-08T16:25:41.156Z,12.90
2023-01-08T16:28:07.644Z,13.80
2023-01-08T16:30:34.282Z,14.20
2023-01-08T16:33:00.781Z,12.10
2023-01-08T16:35:27.241Z,10.90
2023-01-08T16:37:53.869Z,11.70
2023-01-08T16:40:20.389Z,14.00
2023-01-08T16:42:46.861Z,12.10
2023-01-08T16:45:13.447Z,11.20
2023-01-08T16:47:40.363Z,12.50
2023-01-08T16:50:07.651Z,9.80
2023-01-08T16:52:34.320Z,14.40
2023-01-08T16:55:00.773Z,14.20
2023-01-08T16:57:27.225Z,13.10
2023-01-08T16:59:53.743Z,13.30
2023-01-08T17:02:20.406Z,11.90
2023-01-08T17:04:46.915Z,12.20
2023-01-08T17:07:13.884Z,12.80
2023-01-08T17:09:40.344Z,11.20
2023-01-08T17:12:06.809Z,13.80
2023-01-08T17:14:35.129Z,11.60
2023-01-08T17:17:02.168Z,12.20
2023-01-08T17:19:28.640Z,13.80
2023-01-08T17:21:55.148Z,12.60
2023-01-08T17:24:21.600Z,12.80
2023-01-08T17:26:48.120Z,12.20
2023-01-08T17:29:14.600Z,14.80
2023-01-08T17:31:41.110Z,13.30
2023-01-08T17:34:12.367Z,13.80
2023-01-08T17:36:38.933Z,14.30
2023-01-08T17:39:05.471Z,13.70
2023-01-08T17:41:50.807Z,12.80
2023-01-08T17:44:17.335Z,12.80
2023-01-08T17:46:44.684Z,15.90
2023-01-08T17:49:14.296Z,13.40
2023-01-08T17:51:41.844Z,11.60
2023-01-08T17:54:14.511Z,14.80
2023-01-08T17:56:41.764Z,15.00
2023-01-08T17:59:14.159Z,11.10
2023-01-08T18:01:41.343Z,11.80
2023-01-08T18:04:07.968Z,10.80
2023-01-08T18:06:35.465Z,12.10
2023-01-08T18:09:02.670Z,12.20
2023-01-08T18:11:29.553Z,13.10
2023-01-08T18:14:01.186Z,11.20
2023-01-08T18:16:28.778Z,13.70
2023-01-08T18:18:56.550Z,12.30
2023-01-08T18:21:23.686Z,13.00
2023-01-08T18:23:50.221Z,13.20
2023-01-08T18:26:18.387Z,13.60
2023-01-08T18:28:45.314Z,13.70
2023-01-08T18:31:13.399Z,12.20
2023-01-08T18:33:40.847Z,12.80
2023-01-08T18:36:10.444Z,14.80
2023-01-08T18:38:41.583Z,18.40
2023-01-08T18:41:09.649Z,16.00
2023-01-08T18:43:36.848Z,16.80
2023-01-08T18:46:07.818Z,16.70
2023-01-08T18:48:35.100Z,18.50
2023-01-08T18:51:04.817Z,18.60
2023-01-08T18:53:32.812Z,18.70
2023-01-08T18:56:01.130Z,18.40
2023-01-08T18:58:28.434Z,20.30
2023-01-08T19:00:55.195Z,21.20
2023-01-08T19:03:22.058Z,20.70
2023-01-08T19:05:48.687Z,24.00
2023-01-08T19:08:15.190Z,21.30
2023-01-08T19:10:41.669Z,18.90
2023-01-08T19:13:08.236Z,19.00
2023-01-08T19:15:35.202Z,18.50
2023-01-08T19:18:04.122Z,21.00
2023-01-08T19:20:30.698Z,21.00
2023-01-08T19:22:57.264Z,21.60
2023-01-08T19:25:23.772Z,25.80
2023-01-08T19:27:50.373Z,20.70
2023-01-08T19:30:17.142Z,19.70
2023-01-08T19:32:45.697Z,18.20
2023-01-08T19:35:12.253Z,21.00
2023-01-08T19:37:38.782Z,19.50
2023-01-08T19:40:06.142Z,19.10
2023-01-08T19:42:53.022Z,19.30
2023-01-08T19:45:19.529Z,19.00
2023-01-08T19:47:46.189Z,20.40
2023-01-08T19:50:12.893Z,15.60
2023-01-08T19:52:39.556Z,20.10
2023-01-08T19:55:06.208Z,17.90
2023-01-08T19:57:33.421Z,18.50
2023-01-08T20:00:00.026Z,18.40
2023-01-08T20:02:26.791Z,18.00
2023-01-08T20:04:53.438Z,19.20
2023-01-08T20:07:20.145Z,21.10
2023-01-08T20:09:46.683Z,19.90
2023-01-08T20:12:14.262Z,21.30
2023-01-08T20:14:41.034Z,23.20
2023-01-08T20:17:07.673Z,18.00
2023-01-08T20:19:34.312Z,18.80
2023-01-08T20:22:00.926Z,19.80
2023-01-08T20:24:29.244Z,17.90
2023-01-08T20:26:55.822Z,19.40
2023-01-08T20:29:22.380Z,20.10
2023-01-08T20:31:56.048Z,18.60
2023-01-08T20:34:24.009Z,20.90
2023-01-08T20:36:50.942Z,18.90
2023-01-08T20:39:18.638Z,17.30
2023-01-08T20:41:50.416Z,20.40
2023-01-08T20:44:28.004Z,18.60
2023-01-08T20:46:54.764Z,20.80
2023-01-08T20:49:21.468Z,19.70
2023-01-08T20:51:58.126Z,16.20
2023-01-08T20:54:25.423Z,20.40
2023-01-08T20:56:54.879Z,18.10
2023-01-08T20:59:23.444Z,17.30
2023-01-08T21:01:50.110Z,20.90
2023-01-08T21:04:16.829Z,18.30
2023-01-08T21:06:43.357Z,19.40
2023-01-08T21:09:10.356Z,17.50
2023-01-08T21:11:39.779Z,18.20
2023-01-08T21:14:07.593Z,21.00
2023-01-08T21:16:35.272Z,19.50
2023-01-08T21:19:02.405Z,22.10
2023-01-08T21:21:32.514Z,19.20
2023-01-08T21:24:03.732Z,18.60
2023-01-08T21:26:31.687Z,17.80
2023-01-08T21:28:59.646Z,16.10
2023-01-08T21:31:27.859Z,15.80
2023-01-08T21:33:56.148Z,16.40
2023-01-08T21:36:25.594Z,15.50
2023-01-08T21:38:52.517Z,17.60
2023-01-08T21:41:40.099Z,16.80
2023-01-08T21:44:31.270Z,16.40
2023-01-08T21:47:00.002Z,15.00
2023-01-08T21:49:27.295Z,16.90
2023-01-08T21:52:13.248Z,16.20
2023-01-08T21:54:40.137Z,17.20
2023-01-08T21:57:08.091Z,16.70
2023-01-08T21:59:35.295Z,24.30
2023-01-08T22:02:02.451Z,19.10
2023-01-08T22:04:29.396Z,15.60
2023-01-08T22:06:56.381Z,17.20
2023-01-08T22:09:23.095Z,17.50
2023-01-08T22:11:49.686Z,16.90
2023-01-08T22:14:16.605Z,19.20
2023-01-08T22:16:43.171Z,18.60
2023-01-08T22:19:09.913Z,16.60
2023-01-08T22:21:36.526Z,17.30
2023-01-08T22:24:03.266Z,16.90
2023-01-08T22:26:29.877Z,16.30
2023-01-08T22:28:56.472Z,17.80
2023-01-08T22:31:23.034Z,16.50
2023-01-08T22:33:53.757Z,15.90
2023-01-08T22:36:21.192Z,17.90
2023-01-08T22:38:47.828Z,15.40
2023-01-08T22:41:19.197Z,17.20
2023-01-08T22:43:46.152Z,17.30
2023-01-08T22:46:15.230Z,16.50
2023-01-08T22:48:43.132Z,16.00
2023-01-08T22:51:10.851Z,19.60
2023-01-08T22:53:37.510Z,18.30
2023-01-08T22:56:12.092Z,16.00
2023-01-08T22:58:40.339Z,16.50
2023-01-08T23:01:15.782Z,17.50
2023-01-08T23:03:43.868Z,19.10
2023-01-08T23:06:12.417Z,18.00
2023-01-08T23:08:41.391Z,17.40
2023-01-08T23:11:10.405Z,19.00
2023-01-08T23:13:37.764Z,19.30
2023-01-08T23:16:05.473Z,17.40
2023-01-08T23:18:32.041Z,17.40
2023-01-08T23:21:10.525Z,14.60
2023-01-08T23:23:37.391Z,16.90
2023-01-08T23:26:06.001Z,18.60
2023-01-08T23:28:33.511Z,15.40
2023-01-08T23:31:00.120Z,16.00
2023-01-08T23:33:26.820Z,16.50
2023-01-08T23:35:53.331Z,17.20
2023-01-08T23:38:19.999Z,20.70
2023-01-08T23:40:46.713Z,16.30
2023-01-08T23:43:13.505Z,17.00
2023-01-08T23:45:40.039Z,16.70
2023-01-08T23:48:07.263Z,17.40
2023-01-08T23:50:34.219Z,19.00
2023-01-08T23:53:00.911Z,14.30
2023-01-08T23:55:27.857Z,14.30
2023-01-08T23:57:54.403Z,15.20
